Time;durP1;ratioP1;P1;durP2;ratioP2;P2;SDS_P1;SDS_P2;PMS_P1;PMS_P2;Temp;Humidity;BMP_temperature;BMP_pressure;BME280_temperature;BME280_humidity;BME280_pressure;Samples;Min_cycle;Max_cycle;Signal;HPM_P1;HPM_P2
2023/07/30 00:01:18;;;;;;;1.67;1.53;;;;;;;20.92;61.83;100592.94;5048934;27;96941;-89
2023/07/30 00:03:44;;;;;;;1.30;1.20;;;;;;;20.91;61.86;100566.28;5053484;27;97122;-88
2023/07/30 00:06:09;;;;;;;2.70;1.50;;;;;;;20.90;61.88;100590.69;5054746;27;99445;-88
2023/07/30 00:08:34;;;;;;;1.00;1.00;;;;;;;20.90;62.14;100559.94;5057316;27;100301;-88
2023/07/30 00:11:00;;;;;;;1.60;1.50;;;;;;;20.78;62.03;100541.34;5052437;27;97172;-88
2023/07/30 00:13:25;;;;;;;1.53;1.43;;;;;;;20.84;62.26;100556.59;5068209;27;97735;-88
2023/07/30 00:15:51;;;;;;;1.87;1.77;;;;;;;20.75;62.35;100593.56;5069339;27;97702;-88
2023/07/30 00:18:16;;;;;;;1.60;1.50;;;;;;;20.72;62.32;100549.97;5069647;27;98030;-88
2023/07/30 00:20:42;;;;;;;1.93;1.60;;;;;;;20.82;62.51;100564.81;5050513;27;97217;-89
2023/07/30 00:23:07;;;;;;;6.50;1.33;;;;;;;20.75;62.41;100557.19;5069860;27;97331;-87
2023/07/30 00:25:33;;;;;;;1.23;1.17;;;;;;;20.80;62.46;100595.41;5052699;27;100493;-90
2023/07/30 00:27:58;;;;;;;1.20;1.10;;;;;;;20.73;62.50;100554.22;5048874;27;98896;-88
2023/07/30 00:30:24;;;;;;;1.40;1.30;;;;;;;20.78;62.39;100574.91;5052310;27;97371;-89
2023/07/30 00:32:49;;;;;;;4.73;1.70;;;;;;;20.65;62.54;100559.13;5055649;27;96702;-89
2023/07/30 00:35:14;;;;;;;1.70;1.60;;;;;;;20.75;62.69;100590.03;5071014;27;99402;-89
2023/07/30 00:37:40;;;;;;;1.73;1.50;;;;;;;20.71;62.91;100615.56;5057531;27;100229;-89
2023/07/30 00:40:06;;;;;;;2.00;1.40;;;;;;;20.75;62.85;100596.34;5074549;27;96978;-88
2023/07/30 00:42:31;;;;;;;1.30;1.20;;;;;;;20.71;62.94;100603.63;5056132;27;97291;-88
2023/07/30 00:44:57;;;;;;;1.50;1.40;;;;;;;20.72;62.90;100591.16;5058319;27;99359;-88
2023/07/30 00:47:22;;;;;;;1.63;1.50;;;;;;;20.79;62.98;100556.84;5073466;27;98113;-89
2023/07/30 00:49:49;;;;;;;1.60;1.50;;;;;;;20.77;63.03;100593.72;5075967;27;97026;-89
2023/07/30 00:52:20;;;;;;;1.93;1.30;;;;;;;20.80;63.26;100570.25;5056078;27;97163;-89
2023/07/30 00:54:48;;;;;;;1.53;1.40;;;;;;;20.81;63.14;100568.94;5069943;27;100767;-89
2023/07/30 00:57:14;;;;;;;2.60;1.70;;;;;;;20.81;63.38;100582.94;5072424;27;98255;-88
2023/07/30 00:59:39;;;;;;;1.60;1.50;;;;;;;20.84;63.27;100570.59;5056496;27;97052;-89
2023/07/30 01:02:05;;;;;;;2.37;1.43;;;;;;;20.86;63.39;100581.19;5055248;27;97426;-90
2023/07/30 01:04:30;;;;;;;2.00;1.90;;;;;;;20.86;63.34;100600.78;5050576;27;99228;-88
2023/07/30 01:06:55;;;;;;;3.33;1.70;;;;;;;20.91;63.39;100622.97;5056001;27;99989;-89
2023/07/30 01:09:21;;;;;;;1.90;1.80;;;;;;;20.94;63.51;100579.13;5069096;27;97254;-88
2023/07/30 01:11:47;;;;;;;1.50;1.40;;;;;;;20.98;63.39;100592.72;5068026;27;97356;-87
2023/07/30 01:14:14;;;;;;;4.60;1.80;;;;;;;20.95;63.27;100627.44;5054457;27;99512;-89
2023/07/30 01:16:40;;;;;;;1.40;1.17;;;;;;;21.00;63.64;100570.50;5053508;27;100412;-88
2023/07/30 01:19:06;;;;;;;1.83;1.40;;;;;;;20.99;63.58;100589.34;5069642;27;97166;-89
2023/07/30 01:21:35;;;;;;;1.90;1.63;;;;;;;21.03;63.63;100577.78;5056262;27;97055;-89
2023/07/30 01:24:01;;;;;;;2.07;1.60;;;;;;;21.03;63.57;100583.38;5066113;27;99184;-88
2023/07/30 01:26:34;;;;;;;1.80;1.70;;;;;;;21.03;63.66;100584.16;5044917;27;99235;-88
2023/07/30 01:29:03;;;;;;;2.33;1.67;;;;;;;21.07;63.53;100580.97;5066827;27;97310;-88
2023/07/30 01:31:31;;;;;;;1.80;1.70;;;;;;;21.09;63.49;100587.47;5049191;27;97212;-90
2023/07/30 01:33:58;;;;;;;1.50;1.40;;;;;;;21.06;63.35;100587.84;5050409;27;99472;-88
2023/07/30 01:36:24;;;;;;;1.47;1.37;;;;;;;21.08;63.56;100585.97;5048674;27;100207;-86
2023/07/30 01:38:50;;;;;;;1.53;1.43;;;;;;;21.11;63.61;100584.09;5068552;27;97113;-87
2023/07/30 01:41:16;;;;;;;2.13;1.83;;;;;;;21.11;63.47;100590.44;5048722;27;97729;-89
2023/07/30 01:43:41;;;;;;;2.43;1.80;;;;;;;21.13;63.47;100612.25;5047735;27;100368;-89
2023/07/30 01:46:07;;;;;;;2.63;1.33;;;;;;;21.11;63.38;100578.50;5050558;27;99387;-88
2023/07/30 01:48:32;;;;;;;1.77;1.67;;;;;;;21.12;63.50;100586.31;5051049;27;97048;-88
2023/07/30 01:50:57;;;;;;;1.87;1.77;;;;;;;21.12;63.49;100600.31;5067733;27;97364;-88
2023/07/30 01:53:23;;;;;;;2.13;1.90;;;;;;;21.11;63.48;100590.44;5048316;27;99993;-88
2023/07/30 01:55:48;;;;;;;1.97;1.73;;;;;;;21.12;63.42;100602.38;5048382;27;100421;-89
2023/07/30 01:58:13;;;;;;;1.60;1.50;;;;;;;21.11;63.39;100606.50;5064253;27;97061;-88
2023/07/30 02:00:39;;;;;;;1.57;1.40;;;;;;;21.07;63.35;100600.53;5070591;27;97271;-87
2023/07/30 02:03:05;;;;;;;1.90;1.80;;;;;;;21.03;63.59;100611.34;5067053;27;97344;-88
2023/07/30 02:05:30;;;;;;;2.93;1.67;;;;;;;20.99;63.60;100613.81;5048570;27;100061;-88
2023/07/30 02:07:56;;;;;;;3.07;1.70;;;;;;;20.95;63.46;100616.25;5048069;27;97656;-88
2023/07/30 02:10:21;;;;;;;4.93;1.60;;;;;;;20.90;63.51;100612.34;5049133;27;97284;-88
2023/07/30 02:12:46;;;;;;;2.30;1.50;;;;;;;20.86;63.53;100615.50;5047874;27;99403;-89
2023/07/30 02:15:12;;;;;;;1.87;1.70;;;;;;;20.81;63.54;100608.09;5048050;27;100068;-88
2023/07/30 02:17:37;;;;;;;1.90;1.80;;;;;;;20.81;63.63;100616.47;5067186;27;97363;-87
2023/07/30 02:20:03;;;;;;;1.80;1.70;;;;;;;20.77;63.60;100615.38;5047805;27;97409;-89
2023/07/30 02:22:28;;;;;;;3.03;1.97;;;;;;;20.74;63.66;100608.09;5050713;27;99804;-88
2023/07/30 02:24:53;;;;;;;2.00;1.50;;;;;;;20.71;63.65;100607.19;5047531;27;100171;-89
2023/07/30 02:27:19;;;;;;;2.00;1.80;;;;;;;20.66;63.55;100652.84;5047564;27;97152;-90
2023/07/30 02:29:44;;;;;;;1.83;1.70;;;;;;;20.59;63.66;100639.66;5054957;27;97260;-88
2023/07/30 02:32:09;;;;;;;2.07;1.80;;;;;;;20.57;63.70;100622.72;5046698;27;99484;-88
2023/07/30 02:34:35;;;;;;;3.23;1.67;;;;;;;20.58;63.39;100620.63;5049695;27;100416;-87
2023/07/30 02:37:00;;;;;;;2.73;1.70;;;;;;;20.53;63.41;100664.25;5046693;27;99415;-87
2023/07/30 02:39:25;;;;;;;2.07;1.40;;;;;;;20.49;63.48;100605.19;5051445;27;99270;-89
2023/07/30 02:41:51;;;;;;;1.67;1.57;;;;;;;20.44;63.67;100611.00;5046972;27;101981;-88
2023/07/30 02:44:16;;;;;;;2.13;1.97;;;;;;;20.34;63.62;100604.47;5063671;27;108348;-88
2023/07/30 02:46:41;;;;;;;1.77;1.67;;;;;;;20.37;63.68;100653.66;5046969;27;98895;-87
2023/07/30 02:49:08;;;;;;;1.87;1.77;;;;;;;20.37;63.70;100634.09;5047555;27;97692;-87
2023/07/30 02:51:34;;;;;;;2.00;1.90;;;;;;;20.44;63.87;100603.34;5043336;27;100261;-87
2023/07/30 02:54:04;;;;;;;2.10;1.90;;;;;;;20.46;63.83;100616.75;5064819;27;98053;-87
2023/07/30 02:56:29;;;;;;;2.20;1.80;;;;;;;20.47;63.68;100613.41;5062390;27;97123;-86
2023/07/30 02:58:55;;;;;;;1.60;1.50;;;;;;;20.48;63.78;100608.56;5046377;27;97188;-88
2023/07/30 03:01:20;;;;;;;1.53;1.43;;;;;;;20.49;63.88;100602.38;5047066;27;99409;-87
2023/07/30 03:03:45;;;;;;;2.40;1.93;;;;;;;20.45;63.68;100610.41;5046836;27;100253;-86
2023/07/30 03:06:11;;;;;;;1.90;1.80;;;;;;;20.46;63.77;100602.78;5048993;27;97201;-88
2023/07/30 03:08:36;;;;;;;6.03;1.73;;;;;;;20.48;63.82;100620.47;5052740;27;97162;-86
2023/07/30 03:11:02;;;;;;;2.23;2.03;;;;;;;20.45;63.73;100609.66;5065685;27;97625;-88
2023/07/30 03:13:27;;;;;;;1.70;1.60;;;;;;;20.46;63.78;100614.72;5044446;27;99336;-86
2023/07/30 03:15:53;;;;;;;1.87;1.70;;;;;;;20.45;63.81;100646.75;5064452;27;96896;-86
2023/07/30 03:18:18;;;;;;;2.33;1.77;;;;;;;20.45;63.76;100626.44;5045193;27;97253;-88
2023/07/30 03:20:44;;;;;;;4.60;2.67;;;;;;;20.46;63.79;100608.38;5046976;27;100572;-88
2023/07/30 03:23:09;;;;;;;1.70;1.60;;;;;;;20.46;63.76;100625.16;5045423;27;105165;-89
2023/07/30 03:25:34;;;;;;;1.80;1.70;;;;;;;20.43;63.88;100615.81;5048680;27;97193;-88
2023/07/30 03:28:00;;;;;;;1.53;1.43;;;;;;;20.46;63.93;100627.94;5064912;27;97114;-86
2023/07/30 03:30:25;;;;;;;2.07;1.90;;;;;;;20.43;63.64;100617.88;5048580;27;99469;-87
2023/07/30 03:32:50;;;;;;;2.10;1.53;;;;;;;20.35;63.61;100606.72;5048061;27;100824;-87
2023/07/30 03:35:16;;;;;;;1.47;1.37;;;;;;;20.40;63.87;100625.31;5047759;27;97014;-88
2023/07/30 03:37:41;;;;;;;1.90;1.80;;;;;;;20.39;63.76;100626.66;5050875;27;97234;-88
2023/07/30 03:40:07;;;;;;;1.93;1.70;;;;;;;20.38;63.82;100627.94;5050317;27;99008;-89
2023/07/30 03:42:32;;;;;;;3.63;2.00;;;;;;;20.35;63.96;100625.53;5046814;27;98934;-88
2023/07/30 03:44:58;;;;;;;2.27;1.57;;;;;;;20.34;63.76;100630.38;5064310;27;97442;-86
2023/07/30 03:47:24;;;;;;;3.37;2.00;;;;;;;20.29;63.86;100636.88;5064509;27;97023;-88
2023/07/30 03:49:49;;;;;;;2.27;2.07;;;;;;;20.30;63.92;100648.81;5064292;27;97766;-87
2023/07/30 03:52:15;;;;;;;1.80;1.70;;;;;;;20.31;63.95;100628.72;5047234;27;100407;-87
2023/07/30 03:54:40;;;;;;;2.00;1.73;;;;;;;20.30;63.84;100638.38;5050307;27;97234;-89
2023/07/30 03:57:05;;;;;;;2.43;2.23;;;;;;;20.30;63.83;100643.97;5065063;27;96931;-87
2023/07/30 03:59:31;;;;;;;1.97;1.60;;;;;;;20.30;63.75;100680.31;5047512;27;100403;-89
2023/07/30 04:01:56;;;;;;;2.13;1.80;;;;;;;20.28;63.82;100657.75;5068531;27;97746;-88
2023/07/30 04:04:22;;;;;;;2.17;1.63;;;;;;;20.28;63.68;100682.91;5046457;27;97399;-87
2023/07/30 04:06:47;;;;;;;2.73;1.87;;;;;;;20.27;63.79;100666.72;5047213;27;97558;-87
2023/07/30 04:09:12;;;;;;;3.20;1.90;;;;;;;20.24;63.58;100670.63;5049161;27;100170;-86
2023/07/30 04:11:38;;;;;;;3.53;1.60;;;;;;;20.23;63.53;100667.06;5053869;27;100015;-87
2023/07/30 04:14:04;;;;;;;3.37;2.00;;;;;;;20.21;63.41;100654.97;5046983;27;101516;-87
2023/07/30 04:16:30;;;;;;;1.93;1.60;;;;;;;20.23;63.58;100655.91;5063974;27;97494;-88
2023/07/30 04:18:55;;;;;;;2.20;1.30;;;;;;;20.22;63.60;100684.41;5045402;27;98867;-87
2023/07/30 04:21:21;;;;;;;4.67;2.20;;;;;;;20.23;63.56;100677.50;5062457;27;102771;-88
2023/07/30 04:23:46;;;;;;;4.10;1.80;;;;;;;20.23;63.41;100655.16;5065910;27;97370;-87
2023/07/30 04:26:12;;;;;;;2.57;1.93;;;;;;;20.22;63.34;100676.03;5047790;27;97589;-87
2023/07/30 04:28:37;;;;;;;4.13;2.03;;;;;;;20.22;63.38;100668.41;5046313;27;100059;-88
2023/07/30 04:31:03;;;;;;;9.73;1.67;;;;;;;20.22;63.24;100673.97;5063842;27;100961;-89
2023/07/30 04:33:28;;;;;;;1.73;1.63;;;;;;;20.17;63.18;100667.25;5049945;27;96791;-88
2023/07/30 04:35:54;;;;;;;5.43;2.27;;;;;;;20.14;63.05;100653.63;5064393;27;97126;-88
2023/07/30 04:38:19;;;;;;;1.50;1.40;;;;;;;20.17;63.16;100669.28;5046049;27;99463;-87
2023/07/30 04:40:44;;;;;;;3.67;1.67;;;;;;;20.18;63.08;100668.00;5051464;27;100170;-89
2023/07/30 04:43:10;;;;;;;2.60;1.87;;;;;;;20.16;63.14;100676.16;5047696;27;97024;-87
2023/07/30 04:45:35;;;;;;;1.60;1.47;;;;;;;20.11;62.93;100661.09;5047148;27;97228;-87
2023/07/30 04:48:01;;;;;;;3.10;1.90;;;;;;;20.14;62.83;100684.38;5047451;27;100523;-86
2023/07/30 04:50:26;;;;;;;3.90;1.93;;;;;;;20.08;62.72;100718.09;5050352;27;99919;-86
2023/07/30 04:52:51;;;;;;;3.20;1.67;;;;;;;20.13;62.68;100682.88;5048292;27;97206;-88
2023/07/30 04:55:17;;;;;;;6.30;1.70;;;;;;;20.14;62.67;100670.41;5047704;27;97628;-88
2023/07/30 04:57:42;;;;;;;1.60;1.50;;;;;;;20.14;62.41;100671.16;5050845;27;100659;-87
2023/07/30 05:00:08;;;;;;;4.40;1.97;;;;;;;20.13;62.67;100657.75;5065579;27;97922;-88
2023/07/30 05:02:33;;;;;;;4.23;1.57;;;;;;;20.14;62.65;100667.59;5048167;27;96797;-88
2023/07/30 05:04:59;;;;;;;8.03;1.63;;;;;;;20.16;62.63;100678.97;5048556;27;97286;-88
2023/07/30 05:07:24;;;;;;;1.93;1.67;;;;;;;20.16;62.59;100671.34;5046842;27;99660;-89
2023/07/30 05:09:49;;;;;;;2.50;1.50;;;;;;;20.18;62.64;100665.22;5047374;27;99194;-87
2023/07/30 05:12:15;;;;;;;4.07;1.60;;;;;;;20.16;62.71;100656.63;5064717;27;97103;-87
2023/07/30 05:14:40;;;;;;;2.03;1.50;;;;;;;20.21;62.67;100657.75;5050338;27;96958;-87
2023/07/30 05:17:06;;;;;;;9.30;2.10;;;;;;;20.24;62.87;100659.44;5045050;27;104122;-88
2023/07/30 05:19:32;;;;;;;1.70;1.40;;;;;;;20.23;62.59;100653.09;5046541;27;100028;-86
2023/07/30 05:21:59;;;;;;;2.00;1.33;;;;;;;20.28;62.62;100682.91;5049854;27;97073;-87
2023/07/30 05:24:24;;;;;;;5.90;1.80;;;;;;;20.30;62.59;100677.50;5049208;27;97172;-87
2023/07/30 05:26:50;;;;;;;4.77;2.00;;;;;;;20.33;62.48;100673.59;5048869;27;100716;-88
2023/07/30 05:29:15;;;;;;;2.20;1.67;;;;;;;20.35;62.37;100667.44;5049401;27;100731;-88
2023/07/30 05:31:41;;;;;;;1.50;1.40;;;;;;;20.34;62.32;100665.94;5050135;27;97016;-87
2023/07/30 05:34:06;;;;;;;1.70;1.60;;;;;;;20.32;62.35;100672.09;5070149;27;96978;-88
2023/07/30 05:36:31;;;;;;;4.60;2.20;;;;;;;20.36;62.51;100658.50;5069372;27;97795;-88
2023/07/30 05:38:57;;;;;;;6.90;2.53;;;;;;;20.37;62.50;100668.38;5056597;27;99073;-89
2023/07/30 05:41:22;;;;;;;2.80;2.10;;;;;;;20.31;62.52;100690.19;5055664;27;97686;-87
2023/07/30 05:43:48;;;;;;;2.83;2.10;;;;;;;20.42;62.23;100667.44;5050194;27;97372;-88
2023/07/30 05:46:14;;;;;;;4.33;2.20;;;;;;;20.44;62.34;100664.84;5053646;27;99293;-87
2023/07/30 05:48:39;;;;;;;4.50;2.00;;;;;;;20.48;62.37;100672.84;5050136;27;99713;-86
2023/07/30 05:51:04;;;;;;;2.30;1.73;;;;;;;20.40;62.29;100709.16;5049057;27;97041;-87
2023/07/30 05:53:30;;;;;;;2.07;1.80;;;;;;;20.42;62.47;100708.63;5068167;27;96674;-86
2023/07/30 05:55:55;;;;;;;2.20;2.00;;;;;;;20.53;62.36;100669.13;5064047;27;100198;-86
2023/07/30 05:58:21;;;;;;;3.90;2.00;;;;;;;20.46;62.20;100676.19;5050421;27;99318;-87
2023/07/30 06:00:46;;;;;;;2.53;2.00;;;;;;;20.56;62.16;100740.66;5051034;27;97032;-89
2023/07/30 06:03:11;;;;;;;2.80;1.60;;;;;;;20.54;62.19;100679.72;5069371;27;99818;-87
2023/07/30 06:05:40;;;;;;;2.10;1.90;;;;;;;20.54;62.19;100662.19;5067863;27;99982;-90
2023/07/30 06:08:06;;;;;;;5.43;2.67;;;;;;;20.63;62.15;100686.78;5048028;27;100249;-86
2023/07/30 06:10:38;;;;;;;2.73;1.90;;;;;;;20.70;62.09;100661.63;5050972;27;97026;-85
2023/07/30 06:13:06;;;;;;;3.10;2.00;;;;;;;20.73;61.97;100685.66;5065490;27;97461;-88
2023/07/30 06:15:33;;;;;;;3.07;1.83;;;;;;;20.78;62.14;100690.31;5064986;27;100339;-87
2023/07/30 06:17:58;;;;;;;3.73;2.43;;;;;;;20.82;61.96;100664.75;5048483;27;99779;-86
2023/07/30 06:20:24;;;;;;;3.40;2.03;;;;;;;20.81;62.04;100674.47;5065097;27;97542;-86
2023/07/30 06:22:49;;;;;;;3.17;2.10;;;;;;;20.91;61.80;100661.38;5046339;27;98185;-87
2023/07/30 06:25:14;;;;;;;3.03;1.80;;;;;;;20.98;61.75;100699.75;5047509;27;99351;-86
2023/07/30 06:27:40;;;;;;;1.90;1.80;;;;;;;21.02;61.57;100671.41;5065535;27;99345;-86
2023/07/30 06:30:06;;;;;;;2.57;2.13;;;;;;;21.08;61.63;100669.91;5048118;27;97254;-87
2023/07/30 06:32:31;;;;;;;5.83;3.10;;;;;;;21.14;61.62;100673.25;5050337;27;97303;-87
2023/07/30 06:34:56;;;;;;;7.83;2.00;;;;;;;21.10;61.42;100672.88;5050028;27;99202;-87
2023/07/30 06:37:22;;;;;;;3.10;2.03;;;;;;;21.12;61.48;100656.28;5047781;27;99066;-87
2023/07/30 06:39:47;;;;;;;2.90;2.20;;;;;;;21.19;61.43;100685.53;5047927;27;97104;-86
2023/07/30 06:42:13;;;;;;;2.73;2.00;;;;;;;21.22;61.30;100673.97;5066668;27;97155;-86
2023/07/30 06:44:38;;;;;;;5.70;1.90;;;;;;;21.31;61.30;100678.97;5047887;27;99257;-87
2023/07/30 06:47:03;;;;;;;2.33;1.90;;;;;;;21.26;61.32;100668.72;5049181;27;99308;-85
2023/07/30 06:49:29;;;;;;;3.67;2.00;;;;;;;21.33;61.13;100684.00;5053271;27;97136;-87
2023/07/30 06:51:54;;;;;;;2.40;2.20;;;;;;;21.37;61.08;100690.69;5066514;27;96731;-85
2023/07/30 06:54:20;;;;;;;3.50;2.00;;;;;;;21.47;61.07;100688.03;5050283;27;99323;-84
2023/07/30 06:56:46;;;;;;;6.40;2.43;;;;;;;21.52;60.87;100687.81;5064134;27;100640;-87
2023/07/30 06:59:11;;;;;;;3.77;2.27;;;;;;;21.60;60.89;100707.38;5052533;27;97782;-86
2023/07/30 07:01:36;;;;;;;4.67;2.30;;;;;;;21.66;60.69;100719.09;5068236;27;97223;-89
2023/07/30 07:04:02;;;;;;;2.83;1.90;;;;;;;21.64;60.76;100697.25;5046362;27;100835;-86
2023/07/30 07:06:27;;;;;;;2.37;2.10;;;;;;;21.77;60.72;100718.66;5047555;27;100536;-86
2023/07/30 07:08:52;;;;;;;4.60;2.23;;;;;;;21.81;60.52;100695.84;5066889;27;97416;-86
2023/07/30 07:11:18;;;;;;;3.60;2.30;;;;;;;21.86;60.58;100700.53;5051466;27;97122;-91
2023/07/30 07:13:43;;;;;;;2.83;2.50;;;;;;;21.85;60.36;100707.44;5052212;27;99217;-87
2023/07/30 07:16:08;;;;;;;1.87;1.73;;;;;;;21.84;60.12;100691.97;5066603;27;96966;-88
2023/07/30 07:18:34;;;;;;;2.13;1.93;;;;;;;21.90;60.28;100701.63;5048999;27;97123;-87
2023/07/30 07:20:59;;;;;;;3.37;1.73;;;;;;;21.94;59.99;100706.81;5068805;27;97124;-86
2023/07/30 07:23:24;;;;;;;2.93;1.73;;;;;;;21.95;60.01;100680.31;5047212;27;99362;-87
2023/07/30 07:25:51;;;;;;;3.57;2.03;;;;;;;22.05;59.70;100700.75;5049259;27;106542;-86
2023/07/30 07:28:18;;;;;;;2.10;1.97;;;;;;;22.07;59.42;100692.53;5066894;27;97239;-86
2023/07/30 07:30:44;;;;;;;3.90;1.70;;;;;;;22.14;59.49;100712.09;5048001;27;97072;-86
2023/07/30 07:33:12;;;;;;;2.17;2.00;;;;;;;22.18;59.37;100700.47;5050614;27;100684;-87
2023/07/30 07:35:38;;;;;;;4.60;2.40;;;;;;;22.07;59.30;100704.50;5048294;27;99194;-88
2023/07/30 07:38:04;;;;;;;3.80;2.13;;;;;;;22.01;59.21;100706.78;5050229;27;96978;-88
2023/07/30 07:40:29;;;;;;;8.57;2.07;;;;;;;22.02;59.25;100725.06;5050774;27;97381;-87
2023/07/30 07:42:55;;;;;;;7.73;1.90;;;;;;;22.13;59.06;100702.19;5050194;27;100527;-87
2023/07/30 07:45:20;;;;;;;3.33;2.20;;;;;;;22.12;59.05;100751.16;5049723;27;99021;-88
2023/07/30 07:47:46;;;;;;;2.67;1.80;;;;;;;22.36;59.03;100744.06;5051333;27;96963;-87
2023/07/30 07:50:11;;;;;;;8.20;2.23;;;;;;;22.41;58.61;100750.78;5071965;27;96964;-87
2023/07/30 07:52:36;;;;;;;2.63;1.67;;;;;;;22.45;58.59;100753.91;5049685;27;99438;-87
2023/07/30 07:55:04;;;;;;;2.00;1.83;;;;;;;22.41;58.41;100717.84;5055033;27;98924;-87
2023/07/30 07:57:29;;;;;;;5.20;2.10;;;;;;;22.54;58.00;100737.16;5067119;27;97177;-87
2023/07/30 07:59:55;;;;;;;3.00;1.77;;;;;;;22.59;58.01;100747.44;5068105;27;98003;-86
2023/07/30 08:02:20;;;;;;;9.17;2.13;;;;;;;22.49;57.86;100687.69;5058055;27;97532;-88
2023/07/30 08:04:45;;;;;;;3.10;1.70;;;;;;;22.60;57.67;100729.31;5047670;27;98600;-86
2023/07/30 08:07:11;;;;;;;3.13;1.70;;;;;;;22.73;57.54;100728.25;5051444;27;97199;-87
2023/07/30 08:09:36;;;;;;;4.43;1.73;;;;;;;22.86;57.25;100722.31;5054609;27;97214;-88
2023/07/30 08:12:02;;;;;;;3.80;1.70;;;;;;;22.78;57.43;100691.53;5068320;27;98342;-85
2023/07/30 08:14:27;;;;;;;5.10;1.67;;;;;;;22.83;57.32;100703.81;5051178;27;98946;-86
2023/07/30 08:16:53;;;;;;;2.67;1.83;;;;;;;22.97;57.22;100707.81;5053627;27;96939;-86
2023/07/30 08:19:18;;;;;;;2.50;1.33;;;;;;;23.02;57.01;100738.41;5067900;27;96818;-87
2023/07/30 08:21:46;;;;;;;4.13;2.63;;;;;;;23.11;56.47;100757.41;5046760;27;100350;-88
2023/07/30 08:24:11;;;;;;;2.50;1.77;;;;;;;23.16;56.81;100710.00;5049231;27;100844;-87
2023/07/30 08:26:37;;;;;;;3.43;1.97;;;;;;;23.13;56.63;100699.97;5052536;27;97103;-87
2023/07/30 08:29:03;;;;;;;3.43;1.80;;;;;;;23.16;56.39;100740.88;5050078;27;97125;-87
2023/07/30 08:31:28;;;;;;;4.40;2.37;;;;;;;23.18;56.36;100710.16;5049314;27;100427;-87
2023/07/30 08:33:53;;;;;;;3.83;1.67;;;;;;;23.07;56.13;100720.59;5067332;27;96948;-87
2023/07/30 08:36:19;;;;;;;6.17;1.83;;;;;;;23.15;56.39;100723.31;5049844;27;97073;-87
2023/07/30 08:38:44;;;;;;;4.53;1.50;;;;;;;23.19;56.23;100722.91;5046894;27;97346;-87
2023/07/30 08:41:10;;;;;;;5.47;2.17;;;;;;;23.20;56.42;100738.44;5068570;27;97364;-88
2023/07/30 08:43:35;;;;;;;4.27;1.87;;;;;;;23.19;56.22;100718.03;5054267;27;100556;-87
2023/07/30 08:46:01;;;;;;;4.20;2.00;;;;;;;23.23;56.18;100718.34;5068440;27;97200;-89
2023/07/30 08:48:27;;;;;;;3.13;2.07;;;;;;;23.31;56.19;100698.59;5050296;27;97285;-85
2023/07/30 08:50:56;;;;;;;5.23;1.70;;;;;;;23.41;55.74;100721.91;5066605;27;99983;-86
2023/07/30 08:53:24;;;;;;;4.50;2.13;;;;;;;23.55;55.77;100714.59;5068346;27;96845;-91
2023/07/30 08:55:50;;;;;;;3.10;2.03;;;;;;;23.55;55.87;100714.59;5068914;27;97208;-88
2023/07/30 08:58:17;;;;;;;7.50;2.00;;;;;;;23.62;55.81;100714.50;5054772;27;97280;-88
2023/07/30 09:00:42;;;;;;;3.53;1.60;;;;;;;23.72;55.55;100689.28;5054998;27;99329;-86
2023/07/30 09:03:08;;;;;;;3.87;1.97;;;;;;;23.82;55.40;100699.25;5072990;27;97307;-87
2023/07/30 09:05:34;;;;;;;4.80;2.10;;;;;;;23.88;55.58;100684.91;5073650;27;97143;-88
2023/07/30 09:07:59;;;;;;;5.57;2.43;;;;;;;23.83;55.34;100692.28;5071173;27;97218;-87
2023/07/30 09:10:26;;;;;;;2.23;1.63;;;;;;;23.83;55.22;100671.88;5056081;27;99412;-85
2023/07/30 09:12:54;;;;;;;5.20;2.70;;;;;;;23.94;55.33;100684.66;5071141;27;101566;-86
2023/07/30 09:15:38;;;;;;;4.33;2.23;;;;;;;24.05;54.37;100706.63;5054980;27;97295;-84
2023/07/30 09:18:04;;;;;;;6.77;2.43;;;;;;;24.06;55.14;100696.84;5071596;27;97052;-86
2023/07/30 09:20:40;;;;;;;3.77;2.20;;;;;;;24.13;54.17;100716.41;5071165;27;97829;-87
2023/07/30 09:23:07;;;;;;;4.47;2.10;;;;;;;24.07;54.87;100707.50;5068554;27;99558;-85
2023/07/30 09:25:33;;;;;;;3.10;2.20;;;;;;;24.07;54.95;100712.41;5047015;27;97028;-87
2023/07/30 09:27:59;;;;;;;3.63;2.50;;;;;;;24.06;55.07;100736.94;5051192;27;97702;-87
2023/07/30 09:30:25;;;;;;;5.47;2.10;;;;;;;23.97;54.71;100726.38;5059154;27;99609;-86
2023/07/30 09:32:53;;;;;;;3.50;2.00;;;;;;;23.86;54.99;100726.91;5071410;27;97165;-86
2023/07/30 09:35:19;;;;;;;2.90;1.90;;;;;;;23.79;54.92;100720.06;5070755;27;96775;-86
2023/07/30 09:37:45;;;;;;;4.80;2.70;;;;;;;23.67;55.27;100710.69;5051543;27;96718;-86
2023/07/30 09:40:15;;;;;;;2.53;2.30;;;;;;;23.72;55.22;100728.63;5052603;27;100214;-86
2023/07/30 09:42:48;;;;;;;6.93;2.87;;;;;;;23.76;54.82;100735.28;5070020;27;99491;-87
2023/07/30 09:45:36;;;;;;;4.23;2.83;;;;;;;23.78;54.24;100738.28;5071724;27;96773;-88
2023/07/30 09:48:04;;;;;;;3.77;2.40;;;;;;;23.78;54.89;100740.34;5037257;27;97590;-87
2023/07/30 09:50:30;;;;;;;6.20;2.93;;;;;;;23.82;55.08;100737.84;5068771;27;97992;-86
2023/07/30 09:52:58;;;;;;;4.30;3.30;;;;;;;23.87;55.05;100736.84;5068527;27;99352;-85
2023/07/30 09:55:23;;;;;;;2.57;2.37;;;;;;;23.89;54.61;100744.69;5071072;27;96867;-87
2023/07/30 09:57:49;;;;;;;5.57;3.13;;;;;;;23.86;54.80;100735.34;5055156;27;97121;-88
2023/07/30 10:00:14;;;;;;;3.43;2.80;;;;;;;23.90;54.56;100754.56;5071163;27;96915;-84
2023/07/30 10:02:41;;;;;;;5.50;3.23;;;;;;;23.83;54.71;100759.72;5047903;27;99344;-85
2023/07/30 10:05:12;;;;;;;5.23;3.07;;;;;;;23.90;54.50;100754.56;5051138;27;99529;-88
2023/07/30 10:07:41;;;;;;;3.73;2.80;;;;;;;23.94;54.84;100750.03;5069331;27;98895;-85
2023/07/30 10:10:08;;;;;;;5.10;3.90;;;;;;;23.94;54.36;100775.31;5068910;27;97516;-86
2023/07/30 10:12:36;;;;;;;4.20;2.70;;;;;;;23.97;54.19;100793.09;5069484;27;96962;-89
2023/07/30 10:15:02;;;;;;;6.90;3.33;;;;;;;23.90;54.29;100782.69;5068819;27;96880;-88
2023/07/30 10:17:28;;;;;;;6.57;4.03;;;;;;;23.92;54.23;100796.91;5070821;27;97356;-85
2023/07/30 10:19:54;;;;;;;4.53;2.83;;;;;;;23.80;54.42;100768.59;5067605;27;98962;-86
2023/07/30 10:22:22;;;;;;;6.03;4.00;;;;;;;23.84;54.32;100780.91;5052951;27;99213;-87
2023/07/30 10:24:59;;;;;;;4.43;3.87;;;;;;;23.71;53.46;100789.69;5046432;27;97171;-88
2023/07/30 10:27:34;;;;;;;4.20;3.17;;;;;;;23.62;54.41;100795.22;5067052;27;97125;-86
2023/07/30 10:30:10;;;;;;;4.23;3.10;;;;;;;23.52;54.06;100788.81;5051649;27;99551;-85
2023/07/30 10:32:58;;;;;;;4.10;3.50;;;;;;;23.40;54.45;100799.78;5066377;27;96959;-85
2023/07/30 10:35:45;;;;;;;4.57;3.20;;;;;;;23.27;54.14;100814.13;5048661;27;96886;-86
2023/07/30 10:38:27;;;;;;;4.00;3.37;;;;;;;23.22;54.12;100801.06;5063822;27;97106;-86
2023/07/30 10:41:00;;;;;;;3.97;3.60;;;;;;;23.13;54.10;100804.53;5069602;27;99383;-86
2023/07/30 10:43:30;;;;;;;6.30;3.30;;;;;;;23.11;54.81;100801.56;5068428;27;99418;-86
2023/07/30 10:45:55;;;;;;;5.53;3.30;;;;;;;23.13;54.97;100806.63;5049798;27;97365;-87
2023/07/30 10:48:30;;;;;;;6.37;3.20;;;;;;;23.15;54.30;100801.16;5069665;27;96990;-85
2023/07/30 10:50:55;;;;;;;7.33;3.37;;;;;;;23.13;54.76;100794.06;5043360;27;101042;-88
2023/07/30 10:53:20;;;;;;;4.90;3.30;;;;;;;23.22;54.64;100808.78;5070137;27;96639;-87
2023/07/30 10:55:46;;;;;;;8.83;4.17;;;;;;;23.32;54.62;100793.50;5069334;27;96998;-86
2023/07/30 10:58:11;;;;;;;5.37;3.23;;;;;;;23.38;54.59;100796.81;5069237;27;96891;-87
2023/07/30 11:00:38;;;;;;;3.97;3.13;;;;;;;23.39;54.56;100823.59;5055126;27;99699;-85
2023/07/30 11:03:03;;;;;;;8.03;3.50;;;;;;;23.46;54.56;100786.25;5069087;27;97001;-87
2023/07/30 11:05:30;;;;;;;3.70;2.90;;;;;;;23.42;54.31;100816.06;5072664;27;97095;-86
2023/07/30 11:07:56;;;;;;;5.03;3.57;;;;;;;23.42;54.66;100805.56;5071004;27;97454;-87
2023/07/30 11:10:21;;;;;;;3.63;3.23;;;;;;;23.45;54.59;100826.16;5069655;27;96792;-86
2023/07/30 11:12:52;;;;;;;6.33;3.70;;;;;;;23.62;54.47;100786.78;5054929;27;97048;-86
2023/07/30 11:15:17;;;;;;;6.40;3.97;;;;;;;23.51;54.21;100768.41;5051567;27;97531;-89
2023/07/30 11:17:45;;;;;;;5.03;3.77;;;;;;;23.54;53.97;100806.56;5051581;27;96669;-86
2023/07/30 11:20:26;;;;;;;5.57;2.93;;;;;;;23.62;53.76;100832.50;5050127;27;100749;-86